Etusivu
METAR-TAF:

METAR-TAF

Lentoasemat :

Southwest Minnesota Regional Airport (Marshall/Ryan Field)

Marshall, Minnesota, Yhdysvallat

Leveyspiiri: 44-27N, Pituuspiiri: 095-49W, korkeus merenpinnasta: 359 m

Tämänhetkinen sää

Tämä raportti tehtiin 13 minuuttia sitten, kello 19.27 UTC
Tuuli 6 kn pohjoisesta
Lämpötila -4°C
Kosteus 74%
Ilmanpaine 1026 hPa
Näkyvyys: 14.5 km
Hajonneita pilviä 1800 ft:n korkeudessa
Pilvistä 4000 ft:n korkeudessa
heikkoa lumisadetta

METAR: KMML 261927Z AUTO 36006KT 9SM -SN BKN018 OVC040 M04/M08 A3030 RMK AO2 SNB21 P0000 FZRANO

Aika: 13:40 (19:40 UTC)


TAF: puuttuu

Säähavainnot ja -ennusteet yli 4000 lentoasemalta (METAR- ja TAF-raportit).

Käytössä olevat sääasemat on merkitty karttaan keltaisilla ja punaisilla pisteillä.

Aseta hiiri pisteen päälle nähdäksesi sääaseman nimen.

Klikkaa sitten nähdäksesi säähavainnot ja -ennusteet.

Kartan vaihtaminen: klikkaa mustalla rastilla varustettuja vihreitä pisteitä, niin voit zoomata sisään; viivalla varustettua vihreää pistettä, niin voit zoomata ulos tai vihreitä nuolia, niin pääset viereisille kartoille.


METAR-TAF: